Warwick, Canada
Current Conditions -  °F | °C
As of 1:00 AM on Friday 31 Oct 2014 (Local Time) from CYSC Reporting Station
Overcast Overcast  
Wind Chill: 33°   Ceiling: 4200
Heat Index: 37°   Visibility: 9mi
Dew Point: 32°   Wind: 6mph
Humidity: 81%   Direction: 280°W
Pressure: 29.98"   Gusts: NA
Location:  45.95°N, 71.98°W
Report Text: CYSC 310500Z AUTO 28005KT 9SM OVC042 03/00 A2998 RMK SLP160
Loading
Personal Weather Stations






























Interactive Weather Map New forecast layout! Learn more

10-Day Weather Forecast

Advertisements
Track Severe Weather on mobile